Aérodrome :
LOGIN :

S'inscrire | Disclaimer

   EN    FR    IT 

 










Légende :    VFR   VFR Marginal   IFR   IFR Intensif   IFR Très Intensif
Visi : 
Plafond : 
>= 8 km
>= 3000ft
5 à 8 km
1000 à 3000 ft
1500m à 5 km
500 à 1000 ft
800 à 1500m
200 à 500 ft
< 800m
< 200 ft
Symboles :   Orages  Brouillard  Fortes neiges  Fortes précipitations  Vent > 20 kt
SIGMETs :   Divers  Orages  Givrage  Turbulence  Onde Orograph.  Cendres Volcan.







- Altitude de l'aérodrome : 147 ft
- Code IATA : DUS


EDDL - Düsseldorf Int.

DERNIER METAR :
  • 270620Z 17009KT CAVOK 09/04 Q1014 NOSIG

METARs EXPIRÉS :
  • 270550Z 16008KT CAVOK 08/04 Q1014 NOSIG
  • 270520Z 15009KT CAVOK 07/03 Q1014 NOSIG
  • 270450Z 15009KT CAVOK 06/03 Q1014 NOSIG
  • 270420Z 15009KT CAVOK 06/03 Q1015 NOSIG
  • 270350Z 15008KT CAVOK 05/03 Q1015 NOSIG

TAF TAF EDDL
Valide du 27 à 06h jusqu'au 28 à 12h UTC


270500Z 2706/2812 15010KT CAVOK
BECMG 2716/2718 15005KT
BECMG 2803/2806 20012KT
TEMPO 2809/2812 21015G25KT
Pas de NOTAMs connus pour ce terrain.



MET'MAP, la Météo Aéronautique d'un coup d'oeil ! - Copyright ORBIFLY Décembre 2007 - Disclaimer

ORBIFLY MET'MAP TEAM :

Programmation & Développement : Alexandra Zaïnal
Conception & Développement : Baudouin d'Aumeries
Co-Programmation & Développement : Marc-Olivier Méhu
Soutien technique & logistique : Manuel Goepfert

Contact : metmap@orbifly.com




SOURCES & CREDITS :

   NOAA